Accueil
METAR-TAF:

METAR-TAF

Aéroports :

Maastricht Aix-la-Chapelle, Pays-Bas

Aéroport de Maastricht-Aix-la-Chapelle

latitude: 50-55N, longitude: 005-47E, altitude: 114 m

Observation

Le bulletin a été fait il y a 45 minutes, à 11:55 UTC
Vent 10 kt de sud-ouest, variant entre sud et ouest
Température 20°C
Humidité 64%
Pression 1008 hPa
Visibilité 10 km ou plus
Nuages épars à une hauteur de 3300 ft
Nuages épars à une hauteur de 3800 ft

METAR: EHBK 271155Z AUTO 23010KT 190V270 9999 SCT033 SCT038 20/13 Q1008 NOSIG

Heure: 14:40 (12:40 UTC)

Prévision

Le bulletin a été fait il y a 1 heure et 52 minutes, à 10:48 UTC
Prévision valable du 27 à 12 UTC au 28 à 18 UTC
Vent 9 kt de ouest/sud-ouest
Visibilité 10 km ou plus
Nuages épars à une hauteur de 3000 ft
Evoluant progressivement
du 28 à 06 UTC au 28 à 09 UTC
Vent 13 kt de sud-ouest avec des rafales jusqu'à 25 kt

TAF: EHBK 271048Z 2712/2818 24009KT 9999 SCT030 BECMG 2806/2809 23013G25KT

Observations et prévisions météorologiques de plus de 4000 aéroports (messages METAR et TAF).

Les stations disponibles sont représentées par des disques jaunes et rouges sur la carte.

Passer la souris dessus pour voir le nom de la station.

Cliquer dessus pour voir les observations et prévisions météorologiques.

Pour changer de carte: cliquez sur les boutons verts avec une croix noire pour zoomer, sur le bouton vert avec un tiret pour effectuer un zoom arrière, ou sur les flèches vertes pour les cartes adjacentes.


METAR-TAF: